Time;durP1;ratioP1;P1;durP2;ratioP2;P2;SDS_P1;SDS_P2;PMS_P1;PMS_P2;Temp;Humidity;BMP_temperature;BMP_pressure;BME280_temperature;BME280_humidity;BME280_pressure;Samples;Min_cycle;Max_cycle;Signal;HPM_P1;HPM_P2
2023/02/14 00:02:06;;;;;;;15.48;11.07;;;;;;;8.60;59.11;102242.94;5052892;27;101211;-74
2023/02/14 00:04:32;;;;;;;15.63;11.73;;;;;;;8.55;58.81;102224.63;5063520;27;96705;-74
2023/02/14 00:06:58;;;;;;;15.25;10.73;;;;;;;8.57;59.21;102237.69;5050120;27;97318;-74
2023/02/14 00:09:23;;;;;;;17.35;11.50;;;;;;;8.52;59.23;102227.22;5029674;27;101881;-74
2023/02/14 00:11:49;;;;;;;17.75;11.38;;;;;;;8.51;58.78;102228.06;5031376;27;101107;-74
2023/02/14 00:16:59;;;;;;;15.52;11.50;;;;;;;8.39;59.14;102205.34;5065265;27;97161;-74
2023/02/14 00:19:25;;;;;;;17.40;11.35;;;;;;;8.52;58.64;102231.56;5029041;27;101028;-74
2023/02/14 00:21:51;;;;;;;16.10;11.35;;;;;;;8.52;58.89;102223.72;5069962;27;98323;-74
2023/02/14 00:24:20;;;;;;;17.45;11.55;;;;;;;8.53;58.67;102223.72;5029276;27;97411;-75
2023/02/14 00:26:46;;;;;;;14.10;10.90;;;;;;;8.53;58.98;102228.09;5048329;27;96987;-74
2023/02/14 00:29:16;;;;;;;18.23;11.23;;;;;;;8.39;58.91;102205.34;5065766;27;97925;-75
2023/02/14 00:31:42;;;;;;;17.92;11.13;;;;;;;8.49;58.89;102221.94;5060733;27;99212;-74
2023/02/14 00:34:08;;;;;;;16.17;11.85;;;;;;;8.51;58.27;102225.47;5033953;27;96881;-75
2023/02/14 00:36:34;;;;;;;19.05;11.40;;;;;;;8.49;58.48;102221.06;5049843;27;96956;-74
2023/02/14 00:39:04;;;;;;;16.65;11.52;;;;;;;8.36;58.63;102210.53;5069490;27;97904;-74
2023/02/14 00:41:30;;;;;;;18.80;10.68;;;;;;;8.49;58.88;102231.53;5056333;27;98031;-74
2023/02/14 00:43:55;;;;;;;16.83;10.70;;;;;;;8.35;58.98;102208.78;5060552;27;97495;-74
2023/02/14 00:46:23;;;;;;;15.02;11.38;;;;;;;8.37;58.53;102220.13;5029771;27;97155;-74
2023/02/14 00:48:48;;;;;;;16.55;10.88;;;;;;;8.37;58.59;102219.25;5051265;27;100913;-74
2023/02/14 00:51:17;;;;;;;18.48;12.15;;;;;;;8.48;58.74;102237.66;5067418;27;98047;-74
2023/02/14 00:53:43;;;;;;;15.43;11.40;;;;;;;8.46;58.88;102231.53;5047364;27;97248;-74
2023/02/14 00:56:10;;;;;;;15.60;11.20;;;;;;;8.46;58.85;102239.38;5030489;27;96957;-75
2023/02/14 00:58:35;;;;;;;19.35;11.75;;;;;;;8.46;58.52;102242.88;5050150;27;101539;-74
2023/02/14 01:01:01;;;;;;;16.45;11.45;;;;;;;8.43;58.56;102240.25;5051645;27;98169;-74
2023/02/14 01:03:26;;;;;;;15.88;11.18;;;;;;;8.45;58.37;102237.66;5044460;27;97173;-74
2023/02/14 01:05:52;;;;;;;14.70;11.38;;;;;;;8.44;58.29;102236.78;5044582;27;97189;-74
2023/02/14 01:08:18;;;;;;;14.88;10.98;;;;;;;8.43;58.48;102227.16;5047738;27;101297;-74
2023/02/14 01:10:44;;;;;;;23.35;12.20;;;;;;;8.42;58.87;102228.03;5039210;27;101188;-74
2023/02/14 01:13:10;;;;;;;15.73;10.90;;;;;;;8.31;58.20;102208.75;5029208;27;96694;-75
2023/02/14 01:15:50;;;;;;;16.80;11.20;;;;;;;8.30;58.54;102205.25;5037587;27;97434;-74
2023/02/14 01:18:17;;;;;;;17.55;11.57;;;;;;;8.38;58.40;102226.25;5035461;27;98897;-74
2023/02/14 01:20:43;;;;;;;15.93;10.65;;;;;;;8.42;58.47;102227.16;5038875;27;101149;-74
2023/02/14 01:23:08;;;;;;;14.32;10.95;;;;;;;8.40;58.64;102221.91;5062633;27;96934;-74
2023/02/14 01:25:36;;;;;;;14.10;10.35;;;;;;;8.31;58.81;102212.22;5050584;27;97187;-74
2023/02/14 01:28:02;;;;;;;15.75;10.80;;;;;;;8.39;58.44;102230.63;5053001;27;97626;-74
2023/02/14 01:30:28;;;;;;;13.23;10.65;;;;;;;8.39;58.63;102233.25;5055171;27;100764;-74
2023/02/14 01:32:53;;;;;;;15.35;11.27;;;;;;;8.35;58.47;102223.63;5044574;27;96767;-74
2023/02/14 01:35:19;;;;;;;14.38;9.82;;;;;;;8.35;58.23;102224.47;5053734;27;96811;-74
2023/02/14 01:37:45;;;;;;;15.73;10.63;;;;;;;8.34;58.50;102224.47;5043384;27;100005;-74
2023/02/14 01:40:11;;;;;;;13.02;10.13;;;;;;;8.34;58.60;102227.06;5043879;27;101307;-75
2023/02/14 01:42:37;;;;;;;16.50;10.77;;;;;;;8.34;58.39;102232.31;5036627;27;97155;-74
2023/02/14 01:45:23;;;;;;;13.80;9.95;;;;;;;8.31;58.36;102229.69;5050617;27;97090;-74
2023/02/14 01:47:52;;;;;;;16.65;10.45;;;;;;;8.34;58.57;102225.31;5052629;27;98777;-73
2023/02/14 01:50:33;;;;;;;15.25;10.55;;;;;;;8.31;58.51;102227.94;5022220;27;101042;-74
2023/02/14 01:53:07;;;;;;;16.73;9.80;;;;;;;8.34;58.58;102227.06;5072120;27;97213;-74
2023/02/14 01:55:38;;;;;;;14.23;9.90;;;;;;;8.33;58.31;102220.97;5053078;27;96818;-74
2023/02/14 01:58:07;;;;;;;14.77;10.75;;;;;;;8.31;58.45;102221.81;5054609;27;100589;-74
2023/02/14 02:03:16;;;;;;;14.15;9.57;;;;;;;8.29;58.12;102220.94;5070819;27;97929;-74
2023/02/14 02:05:47;;;;;;;13.82;9.77;;;;;;;8.31;58.31;102221.81;5065763;27;96882;-73
2023/02/14 02:08:12;;;;;;;11.25;9.40;;;;;;;8.28;58.10;102221.81;5030287;27;99527;-74
2023/02/14 02:10:38;;;;;;;14.75;10.02;;;;;;;8.24;58.40;102202.63;5043385;27;101375;-74
2023/02/14 02:13:15;;;;;;;13.00;9.48;;;;;;;8.30;58.44;102209.63;5056407;27;96737;-74
2023/02/14 02:15:52;;;;;;;14.43;9.30;;;;;;;8.27;58.06;102207.88;5025941;27;96913;-74
2023/02/14 02:18:45;;;;;;;15.25;10.60;;;;;;;8.30;58.27;102207.88;5047716;27;101547;-74
2023/02/14 02:21:36;;;;;;;13.90;10.43;;;;;;;8.25;57.82;102198.25;5007113;27;101187;-74
2023/02/14 02:24:21;;;;;;;11.63;8.88;;;;;;;8.27;57.57;102209.59;5054119;27;97301;-76
2023/02/14 02:27:05;;;;;;;14.48;9.30;;;;;;;8.16;57.64;102178.16;5048616;27;97635;-76
2023/02/14 02:29:36;;;;;;;11.32;8.13;;;;;;;8.27;57.77;102194.78;5067252;27;101528;-75
2023/02/14 02:32:28;;;;;;;9.88;7.82;;;;;;;8.23;57.54;102198.25;5037594;27;101740;-76
2023/02/14 02:35:12;;;;;;;10.05;7.45;;;;;;;8.27;57.52;102199.16;5045500;27;96936;-76
2023/02/14 02:37:50;;;;;;;10.70;8.32;;;;;;;8.25;57.11;102193.00;5053564;27;96920;-76
2023/02/14 02:40:43;;;;;;;10.93;8.20;;;;;;;8.23;57.30;102193.03;5030845;27;101438;-76
2023/02/14 02:43:43;;;;;;;10.32;7.95;;;;;;;8.23;57.10;102192.13;5057389;27;98043;-76
2023/02/14 02:53:01;;;;;;;11.10;8.48;;;;;;;8.25;57.34;102193.00;5053751;27;96853;-76
2023/02/14 02:55:19;;;;;;;11.27;8.63;;;;;;;8.22;57.14;102180.78;5065307;27;101335;-76
2023/02/14 02:57:45;;;;;;;10.10;7.60;;;;;;;8.20;57.13;102181.66;5047536;27;97376;-76
2023/02/14 03:00:12;;;;;;;12.75;9.13;;;;;;;8.22;57.11;102186.03;5061413;27;96778;-75
2023/02/14 03:05:29;;;;;;;11.95;8.90;;;;;;;8.22;57.18;102193.00;5043580;27;100332;-76
2023/02/14 03:07:55;;;;;;;11.90;9.05;;;;;;;8.17;56.79;102182.50;5056113;27;96823;-76
2023/02/14 03:10:27;;;;;;;12.80;9.35;;;;;;;8.16;57.31;102186.88;5053075;27;96989;-76
2023/02/14 03:12:56;;;;;;;11.85;8.88;;;;;;;8.17;56.91;102187.72;5046617;27;99862;-76
2023/02/14 03:15:44;;;;;;;11.65;9.20;;;;;;;8.16;57.51;102181.63;5038713;27;101308;-75
2023/02/14 03:18:50;;;;;;;10.88;8.75;;;;;;;8.16;57.04;102184.25;5034183;27;97163;-75
2023/02/14 03:21:55;;;;;;;12.07;9.60;;;;;;;8.15;57.22;102179.03;5048243;27;97338;-76
2023/02/14 03:24:29;;;;;;;13.98;8.95;;;;;;;8.05;56.83;102156.28;5036499;27;101661;-76
2023/02/14 03:27:21;;;;;;;12.27;9.50;;;;;;;8.16;56.86;102178.16;5040558;27;99675;-76
2023/02/14 03:30:07;;;;;;;;;;;;;;;8.11;56.86;102182.47;5049455;27;97307;-76
2023/02/14 03:32:44;;;;;;;11.88;9.27;;;;;;;8.11;56.88;102172.88;5069570;27;96852;-74
2023/02/14 03:35:24;;;;;;;10.98;9.38;;;;;;;8.11;57.32;102175.50;5069469;27;97875;-76
2023/02/14 03:38:12;;;;;;;;;;;;;;;8.10;56.78;102178.13;5024281;27;101270;-75
2023/02/14 03:40:37;;;;;;;12.13;9.30;;;;;;;8.11;56.99;102179.84;5061599;27;96726;-76
2023/02/14 03:43:28;;;;;;;12.35;9.38;;;;;;;8.07;57.35;102176.34;5061673;27;96822;-76
2023/02/14 03:46:01;;;;;;;10.05;8.65;;;;;;;8.06;56.69;102172.00;5048364;27;101660;-75
2023/02/14 03:48:28;;;;;;;11.10;8.95;;;;;;;8.01;57.03;102165.00;5054567;27;98107;-74
2023/02/14 03:50:54;;;;;;;10.48;8.68;;;;;;;8.04;57.23;102181.56;5055242;27;97273;-75
2023/02/14 03:53:28;;;;;;;11.65;9.63;;;;;;;8.09;56.83;102179.88;5032996;27;96946;-75
2023/02/14 03:56:09;;;;;;;12.13;8.88;;;;;;;8.06;57.18;102187.69;5044015;27;101068;-76
2023/02/14 03:58:50;;;;;;;11.52;8.85;;;;;;;8.07;57.11;102197.28;5038076;27;101512;-75
2023/02/14 04:01:20;;;;;;;12.93;9.98;;;;;;;7.92;56.89;102169.28;5035049;27;96717;-75
2023/02/14 04:03:46;;;;;;;12.10;9.10;;;;;;;8.07;57.18;102197.28;5050227;27;96820;-75
2023/02/14 04:06:12;;;;;;;12.45;8.82;;;;;;;8.09;57.11;102202.53;5045654;27;101592;-75
2023/02/14 04:08:37;;;;;;;12.15;9.07;;;;;;;8.04;57.13;102191.16;5045412;27;97542;-75
2023/02/14 04:11:04;;;;;;;11.98;9.35;;;;;;;8.01;57.00;102192.00;5043256;27;97887;-75
2023/02/14 04:13:29;;;;;;;11.75;9.65;;;;;;;8.07;56.83;102196.41;5063957;27;97155;-75
2023/02/14 04:15:55;;;;;;;11.30;9.18;;;;;;;8.06;56.58;102197.28;5042703;27;97243;-75
2023/02/14 04:21:05;;;;;;;12.85;9.52;;;;;;;8.02;57.07;102193.75;5043047;27;96794;-74
2023/02/14 04:23:30;;;;;;;11.15;8.38;;;;;;;8.04;57.18;102194.66;5052252;27;97995;-75
2023/02/14 04:25:56;;;;;;;10.73;8.15;;;;;;;8.04;56.87;102193.78;5047400;27;100460;-75
2023/02/14 04:28:22;;;;;;;13.50;8.20;;;;;;;8.04;56.89;102204.25;5055493;27;101771;-76
2023/02/14 04:30:47;;;;;;;10.23;8.18;;;;;;;8.05;56.56;102196.38;5053698;27;97511;-75
2023/02/14 04:33:13;;;;;;;12.40;9.02;;;;;;;8.04;56.70;102194.66;5070328;27;97136;-75
2023/02/14 04:35:38;;;;;;;10.52;8.73;;;;;;;8.04;56.66;102188.53;5068024;27;97561;-75
2023/02/14 04:38:04;;;;;;;10.65;8.85;;;;;;;8.03;56.66;102192.00;5052554;27;97314;-75
2023/02/14 04:40:30;;;;;;;9.52;8.50;;;;;;;8.00;56.90;102185.03;5048499;27;97269;-75
2023/02/14 04:42:55;;;;;;;12.52;9.27;;;;;;;8.04;56.66;102191.16;5024593;27;97274;-75
2023/02/14 04:45:21;;;;;;;10.70;8.70;;;;;;;8.03;57.02;102192.00;5039063;27;101098;-75
2023/02/14 04:47:46;;;;;;;14.30;9.68;;;;;;;8.01;57.16;102192.00;5050320;27;101632;-75
2023/02/14 04:50:12;;;;;;;12.95;9.88;;;;;;;8.01;56.99;102193.75;5052306;27;97057;-75
2023/02/14 04:52:39;;;;;;;11.77;8.90;;;;;;;8.01;57.09;102196.38;5052585;27;97971;-75
2023/02/14 04:55:05;;;;;;;11.65;9.38;;;;;;;8.02;56.93;102190.25;5035037;27;100900;-75
2023/02/14 04:57:31;;;;;;;12.40;9.60;;;;;;;7.99;57.02;102188.50;5055199;27;97430;-75
2023/02/14 04:59:56;;;;;;;12.50;9.00;;;;;;;7.98;56.60;102189.38;5052538;27;97354;-75
2023/02/14 05:02:22;;;;;;;11.55;9.10;;;;;;;7.98;56.84;102196.34;5070384;27;97155;-75
2023/02/14 05:04:47;;;;;;;12.45;8.95;;;;;;;7.97;56.86;102184.13;5048772;27;100841;-75
2023/02/14 05:07:13;;;;;;;10.25;8.18;;;;;;;7.97;57.16;102189.34;5056017;27;97512;-75
2023/02/14 05:09:39;;;;;;;12.60;9.20;;;;;;;7.99;57.27;102192.88;5072071;27;97272;-75
2023/02/14 05:12:05;;;;;;;12.27;9.27;;;;;;;7.96;57.23;102192.84;5052331;27;96948;-75
2023/02/14 05:14:30;;;;;;;12.48;9.60;;;;;;;7.97;56.95;102192.88;5031139;27;101326;-75
2023/02/14 05:16:56;;;;;;;15.98;10.23;;;;;;;7.85;57.12;102177.97;5064971;27;97315;-75
2023/02/14 05:19:22;;;;;;;12.27;9.40;;;;;;;7.98;57.07;102198.97;5050998;27;97280;-75
2023/02/14 05:21:47;;;;;;;12.82;10.05;;;;;;;7.88;57.01;102180.63;5071560;27;96771;-75
2023/02/14 05:24:13;;;;;;;16.77;10.93;;;;;;;7.94;57.36;102188.50;5071853;27;98216;-74
2023/02/14 05:26:39;;;;;;;13.43;10.57;;;;;;;7.79;57.36;102161.34;5035340;27;100816;-75
2023/02/14 05:29:05;;;;;;;15.95;10.23;;;;;;;7.88;57.14;102171.88;5047928;27;97870;-75
2023/02/14 05:31:31;;;;;;;15.57;10.30;;;;;;;7.93;56.86;102198.94;5041689;27;96883;-75
2023/02/14 05:33:56;;;;;;;14.52;11.15;;;;;;;7.87;57.06;102180.59;5054897;27;101530;-75
2023/02/14 05:36:22;;;;;;;12.35;9.73;;;;;;;7.93;57.07;102196.31;5052638;27;101489;-75
2023/02/14 05:38:47;;;;;;;14.48;10.82;;;;;;;7.85;57.36;102185.81;5032177;27;97326;-74
2023/02/14 05:41:13;;;;;;;14.57;10.15;;;;;;;7.89;56.98;102191.94;5033019;27;97037;-75
2023/02/14 05:43:38;;;;;;;17.60;10.65;;;;;;;7.89;56.77;102184.09;5049677;27;101523;-75
2023/02/14 05:46:04;;;;;;;15.18;10.40;;;;;;;7.92;57.16;102203.28;5059696;27;98021;-75
2023/02/14 05:48:30;;;;;;;13.75;9.77;;;;;;;7.92;57.39;102205.03;5053304;27;97109;-75
2023/02/14 05:50:55;;;;;;;13.63;11.35;;;;;;;7.88;57.15;102201.53;5049743;27;97293;-74
2023/02/14 05:53:21;;;;;;;16.63;10.40;;;;;;;7.87;57.37;102199.75;5066320;27;97979;-76
2023/02/14 05:55:46;;;;;;;15.82;10.18;;;;;;;7.89;57.11;102208.50;5037605;27;101364;-75
2023/02/14 05:58:12;;;;;;;16.52;11.48;;;;;;;7.87;57.16;102210.22;5048503;27;96648;-75
2023/02/14 06:00:38;;;;;;;17.52;11.95;;;;;;;7.72;57.28;102186.59;5062314;27;97507;-75
2023/02/14 06:03:03;;;;;;;15.18;11.45;;;;;;;7.86;57.37;102211.09;5028479;27;101184;-74
2023/02/14 06:05:29;;;;;;;15.60;11.43;;;;;;;7.86;57.30;102215.44;5063705;27;97401;-75
2023/02/14 06:07:55;;;;;;;15.30;11.23;;;;;;;7.84;57.40;102211.94;5053676;27;98075;-75
2023/02/14 06:10:22;;;;;;;14.07;10.05;;;;;;;7.87;57.16;102230.25;5025172;27;97060;-75
2023/02/14 06:12:48;;;;;;;13.15;10.82;;;;;;;7.84;57.59;102217.16;5035760;27;97420;-75
2023/02/14 06:15:14;;;;;;;12.52;10.75;;;;;;;7.87;57.53;102230.25;5044571;27;97899;-74
2023/02/14 06:17:40;;;;;;;13.27;10.85;;;;;;;7.88;57.53;102232.91;5051041;27;97255;-74
2023/02/14 06:20:08;;;;;;;16.35;11.00;;;;;;;7.80;57.89;102218.03;5029066;27;97165;-74
2023/02/14 06:22:34;;;;;;;15.23;10.50;;;;;;;7.87;57.75;102238.97;5035980;27;101724;-74
2023/02/14 06:25:00;;;;;;;14.65;10.10;;;;;;;7.88;57.68;102232.91;5049773;27;101216;-75
2023/02/14 06:27:28;;;;;;;18.17;10.73;;;;;;;7.77;57.98;102215.38;5028870;27;96920;-75
2023/02/14 06:29:53;;;;;;;14.02;10.10;;;;;;;7.87;57.91;102244.22;5046846;27;96829;-74
2023/02/14 06:32:19;;;;;;;18.25;10.43;;;;;;;7.72;57.88;102213.59;5012818;27;99558;-75
2023/02/14 06:34:44;;;;;;;12.95;9.40;;;;;;;7.78;57.63;102220.63;5009887;27;98128;-74
2023/02/14 06:37:10;;;;;;;11.70;9.48;;;;;;;7.66;57.65;102210.94;5016921;27;96806;-75
2023/02/14 06:39:35;;;;;;;16.10;9.68;;;;;;;7.90;57.68;102253.81;5009961;28;97206;-75
2023/02/14 06:42:01;;;;;;;14.52;10.45;;;;;;;7.80;57.66;102233.72;5012388;28;101340;-75
2023/02/14 06:44:26;;;;;;;13.30;10.80;;;;;;;7.90;58.09;102251.22;5016648;27;97914;-75
2023/02/14 06:46:52;;;;;;;13.00;10.32;;;;;;;7.88;58.08;102251.22;5034044;27;97131;-74
2023/02/14 06:49:17;;;;;;;13.70;10.40;;;;;;;7.86;57.87;102241.59;5026181;27;98600;-74
2023/02/14 06:51:43;;;;;;;14.73;10.35;;;;;;;7.89;57.66;102255.56;5016013;27;101145;-75
2023/02/14 06:54:08;;;;;;;15.10;10.50;;;;;;;7.89;57.31;102252.09;5021161;27;98620;-75
2023/02/14 06:56:34;;;;;;;13.98;11.00;;;;;;;7.83;57.83;102255.53;4996456;27;97276;-75
2023/02/14 06:58:59;;;;;;;16.35;9.93;;;;;;;7.87;57.47;102259.91;5013831;28;97094;-75
2023/02/14 07:01:25;;;;;;;15.05;11.65;;;;;;;7.70;57.70;102231.00;5011680;28;100894;-75
2023/02/14 07:03:51;;;;;;;17.75;12.73;;;;;;;7.83;57.63;102250.28;5014120;27;100238;-75
2023/02/14 07:06:16;;;;;;;16.20;12.10;;;;;;;7.83;57.61;102255.53;5012347;27;97309;-75
2023/02/14 07:08:42;;;;;;;15.85;11.02;;;;;;;7.61;57.76;102222.22;5012229;27;97287;-75
2023/02/14 07:11:07;;;;;;;17.70;12.57;;;;;;;7.74;57.82;102245.00;5015534;27;97986;-75
2023/02/14 07:13:33;;;;;;;18.58;11.45;;;;;;;7.83;57.89;102255.53;5033282;27;97421;-75
2023/02/14 07:15:58;;;;;;;15.90;10.95;;;;;;;7.86;57.91;102263.38;5018688;28;97330;-75
2023/02/14 07:18:24;;;;;;;15.27;11.20;;;;;;;7.83;57.70;102259.88;5010220;28;97278;-75
2023/02/14 07:20:50;;;;;;;17.58;10.80;;;;;;;7.86;57.35;102267.75;5026645;28;97493;-74
2023/02/14 07:23:15;;;;;;;15.43;10.77;;;;;;;7.86;57.64;102266.00;5012691;27;101021;-74
2023/02/14 07:25:41;;;;;;;14.90;10.55;;;;;;;7.81;57.51;102265.09;5009595;27;97182;-77
2023/02/14 07:28:06;;;;;;;17.25;11.38;;;;;;;7.86;57.81;102272.97;5048165;27;97211;-76
2023/02/14 07:30:32;;;;;;;17.65;11.18;;;;;;;7.77;57.71;102249.38;5062665;27;97405;-75
2023/02/14 07:32:57;;;;;;;13.73;10.70;;;;;;;7.77;57.37;102254.59;5042502;27;97549;-75
2023/02/14 07:35:23;;;;;;;13.88;9.82;;;;;;;7.88;57.83;102274.75;5052703;27;96752;-75
2023/02/14 07:37:49;;;;;;;16.17;11.50;;;;;;;7.89;57.31;102273.88;5053593;27;97150;-74
2023/02/14 07:40:15;;;;;;;11.93;9.48;;;;;;;7.90;57.45;102264.28;5045791;27;100775;-74
2023/02/14 07:42:41;;;;;;;12.88;10.23;;;;;;;7.79;57.78;102243.28;5033455;27;100771;-75
2023/02/14 07:45:07;;;;;;;14.05;10.15;;;;;;;7.91;57.67;102273.88;5041104;27;96877;-74
2023/02/14 07:47:33;;;;;;;14.85;10.20;;;;;;;7.91;57.40;102274.78;5050336;27;96832;-75
2023/02/14 07:49:58;;;;;;;13.27;10.20;;;;;;;7.92;57.90;102265.19;5047311;27;101630;-74
2023/02/14 07:52:24;;;;;;;13.45;9.77;;;;;;;7.92;57.49;102260.81;5061750;27;97495;-75
2023/02/14 07:54:49;;;;;;;15.13;9.70;;;;;;;7.79;57.64;102243.28;5067970;27;96762;-74
2023/02/14 07:57:15;;;;;;;12.48;9.82;;;;;;;7.96;57.62;102272.16;5050590;27;96969;-74
2023/02/14 07:59:40;;;;;;;15.95;11.23;;;;;;;7.93;57.60;102270.41;5047132;27;97765;-74
2023/02/14 08:02:06;;;;;;;16.88;10.07;;;;;;;7.89;57.77;102258.19;5029626;27;101433;-74
2023/02/14 08:04:32;;;;;;;14.10;9.07;;;;;;;7.98;57.66;102264.34;5064472;27;98249;-74
2023/02/14 08:06:57;;;;;;;14.18;10.15;;;;;;;7.98;57.54;102273.06;5067348;27;97397;-73
2023/02/14 08:09:25;;;;;;;13.95;10.02;;;;;;;7.98;57.62;102265.22;5029623;27;101278;-74
2023/02/14 08:14:41;;;;;;;12.95;9.05;;;;;;;7.96;57.38;102277.41;5047762;27;97154;-76
2023/02/14 08:17:08;;;;;;;10.98;8.73;;;;;;;8.00;57.31;102281.81;5032409;27;97537;-76
2023/02/14 08:19:35;;;;;;;13.88;9.65;;;;;;;7.98;57.42;102283.53;5035343;27;99449;-76
2023/02/14 08:22:01;;;;;;;15.68;8.90;;;;;;;8.01;57.39;102288.78;5052703;27;102030;-76
2023/02/14 08:24:26;;;;;;;14.38;9.88;;;;;;;7.93;57.61;102277.38;5045181;27;97161;-74
2023/02/14 08:26:52;;;;;;;13.73;9.77;;;;;;;8.00;57.37;102288.75;5033893;27;97001;-73
2023/02/14 08:29:18;;;;;;;12.00;9.13;;;;;;;7.87;57.38;102265.13;5051046;27;101872;-74
2023/02/14 08:31:44;;;;;;;13.68;9.60;;;;;;;8.04;57.08;102287.94;5051264;27;97772;-74
2023/02/14 08:34:09;;;;;;;14.07;9.50;;;;;;;8.04;57.33;102283.56;5054117;27;97117;-74
2023/02/14 08:36:35;;;;;;;13.98;9.52;;;;;;;8.00;57.38;102276.59;5050066;27;96882;-73
2023/02/14 08:39:03;;;;;;;14.23;9.20;;;;;;;7.91;57.17;102263.41;5049193;27;101631;-74
2023/02/14 08:41:29;;;;;;;14.52;9.23;;;;;;;8.05;57.48;102290.53;5034786;27;101867;-76
2023/02/14 08:43:54;;;;;;;13.77;8.98;;;;;;;8.05;57.19;102287.06;5062530;27;96726;-76
2023/02/14 08:46:20;;;;;;;13.98;9.13;;;;;;;8.07;57.49;102280.97;5059680;27;97460;-74
2023/02/14 08:48:45;;;;;;;13.45;8.90;;;;;;;7.99;57.74;102271.31;5060172;27;100146;-74
2023/02/14 08:51:13;;;;;;;13.77;8.73;;;;;;;8.12;57.31;102288.88;5036601;27;101044;-74
2023/02/14 08:53:39;;;;;;;13.57;9.15;;;;;;;8.14;57.17;102285.41;5059178;27;97885;-74
2023/02/14 08:56:07;;;;;;;14.18;9.07;;;;;;;8.04;57.45;102265.25;5036222;27;97855;-77
2023/02/14 08:58:34;;;;;;;11.77;9.23;;;;;;;8.14;57.15;102282.78;5045116;27;100912;-76
2023/02/14 09:01:01;;;;;;;11.75;8.93;;;;;;;8.18;57.48;102286.31;5053658;27;101467;-76
2023/02/14 09:03:26;;;;;;;11.68;8.57;;;;;;;8.19;57.17;102285.41;5052735;27;97979;-80
2023/02/14 09:05:52;;;;;;;15.45;9.38;;;;;;;8.19;57.54;102285.41;5053493;27;96818;-76
2023/02/14 09:08:17;;;;;;;13.05;8.63;;;;;;;8.19;56.92;102285.41;5036148;27;101042;-76
2023/02/14 09:10:43;;;;;;;16.00;8.85;;;;;;;8.11;56.82;102280.13;5038791;27;98055;-83
2023/02/14 09:13:08;;;;;;;15.70;9.02;;;;;;;8.22;56.97;102295.03;5042150;27;97664;-79
2023/02/14 09:15:34;;;;;;;15.50;8.95;;;;;;;8.24;57.07;102296.81;5044921;27;96896;-75
2023/02/14 09:17:59;;;;;;;12.98;8.55;;;;;;;8.26;56.84;102297.69;5049012;27;101648;-77
2023/02/14 09:20:25;;;;;;;12.00;8.68;;;;;;;8.25;56.78;102293.31;5048824;27;100780;-75
2023/02/14 09:22:54;;;;;;;14.25;8.82;;;;;;;8.16;56.62;102280.16;5034591;27;96855;-74
2023/02/14 09:25:20;;;;;;;12.50;8.45;;;;;;;8.28;56.60;102298.56;5047308;27;96841;-76
2023/02/14 09:27:45;;;;;;;12.85;8.38;;;;;;;8.25;57.23;102288.06;5051272;27;100998;-75
2023/02/14 09:30:12;;;;;;;11.52;8.35;;;;;;;8.29;56.69;102296.81;5027884;27;102087;-75
2023/02/14 09:32:37;;;;;;;18.33;8.30;;;;;;;8.27;56.91;102294.22;5065539;27;97228;-78
2023/02/14 09:35:03;;;;;;;16.75;8.82;;;;;;;8.33;56.87;102302.09;5069358;27;98204;-78
2023/02/14 09:37:29;;;;;;;13.95;8.88;;;;;;;8.36;57.12;102307.34;5032849;27;101583;-82
2023/02/14 09:39:54;;;;;;;12.95;8.52;;;;;;;8.37;56.70;102306.47;5035500;27;101198;-77
2023/02/14 09:42:39;;;;;;;14.63;8.77;;;;;;;8.36;56.37;102301.25;5035409;27;96854;-78
2023/02/14 09:45:17;;;;;;;14.30;8.27;;;;;;;8.39;56.82;102302.16;5058340;27;97486;-84
2023/02/14 09:47:51;;;;;;;14.60;8.70;;;;;;;8.27;56.84;102277.63;5046705;27;101133;-84
2023/02/14 09:50:21;;;;;;;12.35;7.97;;;;;;;8.36;56.53;102291.66;5048628;27;101372;-85
2023/02/14 09:52:49;;;;;;;13.60;8.48;;;;;;;8.45;56.83;102306.56;5061229;27;97405;-84
2023/02/14 09:55:16;;;;;;;13.75;7.80;;;;;;;8.33;56.69;102277.66;5048031;27;97229;-84
2023/02/14 09:58:00;;;;;;;11.27;7.57;;;;;;;8.34;56.56;102282.91;5033357;27;101434;-83
2023/02/14 10:00:36;;;;;;;14.55;7.60;;;;;;;8.38;57.07;102289.06;5064392;27;102402;-81
2023/02/14 10:03:02;;;;;;;13.27;7.25;;;;;;;8.50;56.45;102304.88;5063666;27;97334;-80
2023/02/14 10:05:54;;;;;;;10.68;6.97;;;;;;;8.52;56.69;102300.53;5046375;27;97143;-79
2023/02/14 10:08:47;;;;;;;12.18;7.53;;;;;;;8.53;56.79;102304.00;5031052;27;101297;-80
2023/02/14 10:11:19;;;;;;;11.45;6.75;;;;;;;8.54;56.52;102308.38;5018647;27;101988;-83
2023/02/14 10:13:53;;;;;;;14.60;8.07;;;;;;;8.55;56.40;102305.78;5043507;27;96912;-85
2023/02/14 10:16:26;;;;;;;11.25;6.88;;;;;;;8.57;56.73;102300.53;5051065;27;96805;-81
2023/02/14 10:19:00;;;;;;;10.13;7.18;;;;;;;8.56;56.23;102304.03;5035876;27;102389;-80
2023/02/14 10:22:15;;;;;;;11.88;7.20;;;;;;;8.55;56.06;102295.31;5052659;27;101033;-84
2023/02/14 10:24:50;;;;;;;11.55;6.97;;;;;;;8.45;56.13;102256.84;5000247;28;97038;-87
2023/02/14 10:27:31;;;;;;;12.82;7.50;;;;;;;8.60;56.16;102290.06;4973286;28;96878;-83
2023/02/14 10:29:57;;;;;;;9.07;6.80;;;;;;;8.59;56.23;102293.56;4988706;28;102164;-84
2023/02/14 10:32:39;;;;;;;13.00;7.38;;;;;;;8.58;55.98;102278.72;4996296;28;97792;-83
2023/02/14 10:35:06;;;;;;;;;;;;;;;8.60;56.43;102285.69;5004220;28;96890;-83
2023/02/14 10:37:53;;;;;;;13.23;6.32;;;;;;;8.64;55.82;102285.72;4995536;28;97319;-83
2023/02/14 10:40:39;;;;;;;10.43;6.50;;;;;;;8.57;56.18;102271.72;5000881;28;97821;-79
2023/02/14 10:43:20;;;;;;;12.27;6.22;;;;;;;8.65;56.24;102277.88;4988274;28;101812;-82
2023/02/14 10:46:22;;;;;;;13.30;7.70;;;;;;;8.67;56.30;102275.25;4979051;28;98751;-82
2023/02/14 10:49:25;;;;;;;12.32;7.28;;;;;;;8.68;56.26;102285.75;4993175;28;96853;-82
2023/02/14 10:51:53;;;;;;;13.25;7.57;;;;;;;8.70;56.21;102281.41;4989671;28;101690;-81
2023/02/14 10:54:27;;;;;;;11.35;6.43;;;;;;;8.68;55.85;102263.94;4957027;27;101300;-81
2023/02/14 10:56:59;;;;;;;13.27;6.75;;;;;;;8.60;55.37;102250.81;5047675;27;97407;-81
2023/02/14 10:59:27;;;;;;;10.38;6.50;;;;;;;8.74;55.26;102279.69;5051437;27;96919;-80
2023/02/14 11:01:54;;;;;;;8.75;5.95;;;;;;;8.61;55.21;102248.22;5050920;27;101278;-82
2023/02/14 11:04:22;;;;;;;9.63;6.28;;;;;;;8.72;55.37;102268.31;5033720;27;100877;-81
2023/02/14 11:06:49;;;;;;;9.82;6.18;;;;;;;8.71;55.38;102263.94;5031181;27;96858;-80
2023/02/14 11:09:15;;;;;;;14.95;6.00;;;;;;;8.63;55.39;102236.84;5050117;27;96849;-79
2023/02/14 11:11:52;;;;;;;13.65;6.40;;;;;;;8.80;55.12;102264.00;5052200;27;97736;-80
2023/02/14 11:14:32;;;;;;;12.70;6.38;;;;;;;8.76;55.66;102262.25;5048448;27;97956;-82
2023/02/14 11:16:59;;;;;;;13.45;6.53;;;;;;;8.73;55.06;102247.38;5050886;27;97632;-79
2023/02/14 11:19:30;;;;;;;13.75;6.75;;;;;;;8.77;55.29;102250.88;5052733;27;96946;-84
2023/02/14 11:21:58;;;;;;;11.13;6.68;;;;;;;8.81;54.89;102256.16;5033124;27;101356;-82
2023/02/14 11:24:31;;;;;;;9.55;6.05;;;;;;;8.85;55.27;102249.19;5030392;27;100439;-80
2023/02/14 11:27:03;;;;;;;12.38;5.95;;;;;;;8.91;55.35;102246.56;5051633;27;97363;-80
2023/02/14 11:29:31;;;;;;;18.25;5.68;;;;;;;8.81;55.29;102224.72;5051537;27;97247;-80
2023/02/14 11:32:06;;;;;;;9.15;5.75;;;;;;;8.94;54.86;102246.59;5021644;27;101554;-80
2023/02/14 11:34:38;;;;;;;13.68;5.75;;;;;;;8.95;55.06;102244.84;5032603;27;101059;-85
2023/02/14 11:37:26;;;;;;;12.02;6.63;;;;;;;8.99;55.29;102244.84;5065092;27;96975;-80
2023/02/14 11:39:54;;;;;;;13.05;6.85;;;;;;;8.99;54.84;102234.38;5061216;27;98029;-79
2023/02/14 11:42:49;;;;;;;11.32;6.28;;;;;;;9.02;54.69;102238.75;5050477;27;101499;-79
2023/02/14 11:45:34;;;;;;;12.35;6.65;;;;;;;9.03;54.63;102240.50;5019082;27;101569;-79
2023/02/14 11:48:17;;;;;;;6.93;4.80;;;;;;;8.97;54.43;102217.78;5059092;27;96794;-80
2023/02/14 11:50:44;;;;;;;11.10;5.18;;;;;;;9.03;54.52;102220.41;5068619;27;96793;-79
2023/02/14 11:53:11;;;;;;;8.60;4.63;;;;;;;9.05;54.19;102221.28;5050290;27;102627;-79
2023/02/14 11:55:37;;;;;;;8.77;4.90;;;;;;;8.97;54.75;102212.53;5028436;27;101656;-79